createdAt,value
2019-02-27T00:01:34.844Z,17.03
2019-02-27T00:04:06.973Z,17.50
2019-02-27T00:06:37.373Z,16.53
2019-02-27T00:09:27.150Z,22.90
2019-02-27T00:12:19.353Z,19.47
2019-02-27T00:14:54.484Z,16.33
2019-02-27T00:17:44.293Z,18.20
2019-02-27T00:20:36.663Z,18.60
2019-02-27T00:23:16.946Z,20.97
2019-02-27T00:25:47.302Z,16.23
2019-02-27T00:28:37.078Z,15.93
2019-02-27T00:31:26.883Z,19.17
2019-02-27T00:33:59.849Z,27.93
2019-02-27T00:39:45.283Z,18.97
2019-02-27T00:42:35.051Z,19.23
2019-02-27T00:45:24.875Z,18.67
2019-02-27T00:47:55.240Z,24.33
2019-02-27T00:50:45.033Z,20.47
2019-02-27T00:53:34.797Z,20.73
2019-02-27T00:56:05.268Z,24.83
2019-02-27T00:58:54.999Z,20.93
2019-02-27T01:01:25.375Z,21.47
2019-02-27T01:04:15.138Z,23.10
2019-02-27T01:07:04.948Z,21.47
2019-02-27T01:09:55.706Z,20.93
2019-02-27T01:12:26.118Z,24.80
2019-02-27T01:15:15.865Z,20.50
2019-02-27T01:17:46.268Z,22.00
2019-02-27T01:20:55.217Z,18.93
2019-02-27T01:23:45.083Z,21.80
2019-02-27T01:26:34.883Z,20.50
2019-02-27T01:29:06.864Z,20.23
2019-02-27T01:31:37.282Z,21.27
2019-02-27T01:34:27.046Z,24.30
2019-02-27T01:37:16.831Z,19.30
2019-02-27T01:39:48.887Z,18.80
2019-02-27T01:42:19.292Z,21.50
2019-02-27T01:45:11.863Z,20.17
2019-02-27T01:47:42.262Z,21.67
2019-02-27T01:50:36.596Z,20.60
2019-02-27T01:53:08.422Z,29.83
2019-02-27T01:55:58.166Z,27.87
2019-02-27T01:58:28.610Z,27.67
2019-02-27T02:01:18.374Z,21.37
2019-02-27T02:04:08.193Z,20.87
2019-02-27T02:06:57.978Z,22.37
2019-02-27T02:09:49.148Z,24.43
2019-02-27T02:12:26.434Z,17.90
2019-02-27T02:15:36.008Z,20.77
2019-02-27T02:18:45.730Z,20.30
2019-02-27T02:22:06.125Z,25.50
2019-02-27T02:25:06.263Z,20.33
2019-02-27T02:28:15.496Z,22.43
2019-02-27T02:31:43.416Z,19.37
2019-02-27T02:35:14.837Z,20.27
2019-02-27T02:38:27.219Z,21.47
2019-02-27T02:41:35.711Z,22.73
2019-02-27T02:44:44.182Z,21.33
2019-02-27T02:47:44.734Z,28.47
2019-02-27T02:50:54.366Z,17.40
2019-02-27T02:54:08.902Z,17.40
2019-02-27T02:57:01.965Z,20.17
2019-02-27T03:00:01.091Z,20.07
2019-02-27T03:03:01.794Z,19.33
2019-02-27T03:06:10.425Z,19.77
2019-02-27T03:09:38.294Z,20.80
2019-02-27T03:12:56.642Z,19.03
2019-02-27T03:15:51.755Z,21.23
2019-02-27T03:19:05.047Z,18.53
2019-02-27T03:22:04.700Z,21.03
2019-02-27T03:24:56.461Z,18.40
2019-02-27T03:28:24.328Z,23.07
2019-02-27T03:31:57.542Z,21.50
2019-02-27T03:34:52.653Z,18.93
2019-02-27T03:38:01.259Z,19.50
2019-02-27T03:41:29.146Z,19.80
2019-02-27T03:44:57.238Z,15.10
2019-02-27T03:48:10.477Z,15.93
2019-02-27T03:51:24.679Z,23.67
2019-02-27T03:54:33.110Z,26.37
2019-02-27T03:57:42.181Z,24.73
2019-02-27T04:01:10.068Z,24.37
2019-02-27T04:04:37.928Z,23.90
2019-02-27T04:07:35.245Z,18.67
2019-02-27T04:10:30.823Z,23.87
2019-02-27T04:13:10.303Z,19.00
2019-02-27T04:16:00.161Z,23.43
2019-02-27T04:18:28.868Z,21.13
2019-02-27T04:21:00.880Z,18.00
2019-02-27T04:23:31.323Z,23.80
2019-02-27T04:26:21.069Z,21.87
2019-02-27T04:28:51.469Z,19.90
2019-02-27T04:31:41.232Z,22.80
2019-02-27T04:34:33.189Z,22.40
2019-02-27T04:37:22.474Z,24.50
2019-02-27T04:40:12.287Z,28.73
2019-02-27T04:43:02.029Z,22.07
2019-02-27T04:45:51.800Z,22.27
2019-02-27T04:48:29.929Z,21.70
2019-02-27T04:51:14.582Z,32.53
2019-02-27T04:53:55.576Z,19.87
2019-02-27T04:59:49.735Z,35.17
2019-02-27T05:02:31.263Z,27.80
2019-02-27T05:05:22.002Z,28.53
2019-02-27T05:07:54.475Z,31.10
2019-02-27T05:10:40.532Z,23.23
2019-02-27T05:13:21.776Z,29.90
2019-02-27T05:16:14.168Z,21.80
2019-02-27T05:22:06.176Z,29.43
2019-02-27T05:24:55.955Z,32.00
2019-02-27T05:27:27.415Z,24.70
2019-02-27T05:30:18.132Z,26.43
2019-02-27T05:32:50.194Z,24.53
2019-02-27T05:35:39.979Z,27.43
2019-02-27T05:38:10.392Z,26.40
2019-02-27T05:41:00.629Z,21.17
2019-02-27T05:43:37.754Z,24.63
2019-02-27T05:46:27.557Z,26.53
2019-02-27T05:49:17.337Z,26.57
2019-02-27T05:52:07.144Z,26.77
2019-02-27T05:54:56.895Z,27.77
2019-02-27T05:57:27.285Z,26.83
2019-02-27T06:00:18.270Z,26.83
2019-02-27T06:02:48.656Z,25.50
2019-02-27T06:05:38.409Z,34.53
2019-02-27T06:08:28.178Z,26.80
2019-02-27T06:11:17.928Z,35.00
2019-02-27T06:13:48.327Z,28.63
2019-02-27T06:16:40.696Z,30.73
2019-02-27T06:19:23.042Z,34.23
2019-02-27T06:22:12.858Z,36.73
2019-02-27T06:24:45.726Z,39.73
2019-02-27T06:27:37.223Z,29.87
2019-02-27T06:30:14.918Z,35.20
2019-02-27T06:32:45.463Z,36.00
2019-02-27T06:35:35.433Z,30.93
2019-02-27T06:38:25.891Z,36.43
2019-02-27T06:41:09.820Z,32.33
2019-02-27T06:43:40.208Z,39.60
2019-02-27T06:46:10.759Z,30.57
2019-02-27T06:48:43.610Z,40.40
2019-02-27T06:51:33.367Z,37.10
2019-02-27T06:54:18.470Z,28.00
2019-02-27T06:56:58.998Z,34.10
2019-02-27T06:59:31.090Z,28.00
2019-02-27T07:02:21.662Z,32.67
2019-02-27T07:05:03.756Z,31.33
2019-02-27T07:07:53.624Z,34.73
2019-02-27T07:10:43.395Z,35.20
2019-02-27T07:13:33.229Z,33.47
2019-02-27T07:16:35.089Z,32.67
2019-02-27T07:19:06.198Z,34.33
2019-02-27T07:21:36.630Z,38.73
2019-02-27T07:24:26.434Z,30.63
2019-02-27T07:27:16.225Z,30.27
2019-02-27T07:30:07.467Z,38.47
2019-02-27T07:32:39.243Z,38.97
2019-02-27T07:35:29.327Z,30.20
2019-02-27T07:38:13.803Z,32.57
2019-02-27T07:41:03.606Z,31.27
2019-02-27T07:43:53.361Z,34.03
2019-02-27T07:46:43.131Z,26.27
2019-02-27T07:49:32.869Z,31.20
2019-02-27T07:52:22.662Z,38.27
2019-02-27T07:55:21.693Z,29.30
2019-02-27T07:57:51.119Z,29.87
2019-02-27T08:00:42.802Z,30.67
2019-02-27T08:03:24.077Z,29.50
2019-02-27T08:06:13.844Z,27.97
2019-02-27T08:09:03.908Z,33.87
2019-02-27T08:11:53.677Z,30.17
2019-02-27T08:14:43.449Z,27.57
2019-02-27T08:17:33.232Z,29.27
2019-02-27T08:20:23.002Z,26.93
2019-02-27T08:23:12.796Z,30.00
2019-02-27T08:26:05.005Z,32.30
2019-02-27T08:28:48.408Z,25.10
2019-02-27T08:31:38.220Z,26.53
2019-02-27T08:34:28.026Z,26.07
2019-02-27T08:37:17.867Z,23.13
2019-02-27T08:40:07.887Z,32.77
2019-02-27T08:42:40.558Z,26.00
2019-02-27T08:45:30.899Z,32.30
2019-02-27T08:48:20.713Z,35.20
2019-02-27T08:51:10.545Z,38.70
2019-02-27T08:54:00.692Z,28.93
2019-02-27T08:56:50.474Z,31.73
2019-02-27T08:59:40.769Z,25.67
2019-02-27T09:02:24.166Z,27.93
2019-02-27T09:05:00.277Z,29.80
2019-02-27T09:07:50.017Z,27.50
2019-02-27T09:10:39.920Z,26.20
2019-02-27T09:13:29.699Z,21.13
2019-02-27T09:16:19.502Z,22.03
2019-02-27T09:19:10.101Z,26.00
2019-02-27T09:21:46.874Z,24.13
2019-02-27T09:27:45.459Z,20.80
2019-02-27T09:30:35.236Z,20.80
2019-02-27T09:33:25.042Z,15.27
2019-02-27T09:36:14.963Z,15.40
2019-02-27T09:42:09.946Z,18.47
2019-02-27T09:44:59.698Z,25.33
2019-02-27T09:47:49.510Z,15.80
2019-02-27T09:50:47.649Z,18.20
2019-02-27T09:53:27.250Z,27.20
2019-02-27T09:56:17.061Z,21.70
2019-02-27T09:59:06.938Z,25.47
2019-02-27T10:01:57.317Z,19.53
2019-02-27T10:04:39.741Z,23.23
2019-02-27T10:07:10.170Z,25.80
2019-02-27T10:09:59.968Z,24.07
2019-02-27T10:12:49.784Z,20.40
2019-02-27T10:15:40.521Z,22.33
2019-02-27T10:18:10.983Z,22.50
2019-02-27T10:21:00.814Z,22.43
2019-02-27T10:23:50.584Z,24.77
2019-02-27T10:26:40.398Z,25.97
2019-02-27T10:29:30.210Z,30.03
2019-02-27T10:32:20.018Z,27.90
2019-02-27T10:35:09.973Z,26.27
2019-02-27T10:37:59.758Z,31.00
2019-02-27T10:40:49.548Z,25.90
2019-02-27T10:43:39.348Z,22.20
2019-02-27T10:46:29.156Z,24.60
2019-02-27T10:49:21.350Z,25.20
2019-02-27T10:51:56.467Z,23.13
2019-02-27T10:54:46.276Z,26.27
2019-02-27T10:57:38.421Z,27.60
2019-02-27T11:00:37.958Z,23.87
2019-02-27T11:03:27.760Z,22.83
2019-02-27T11:06:17.531Z,29.93
2019-02-27T11:09:31.607Z,21.90
2019-02-27T11:12:03.161Z,26.43
2019-02-27T11:14:52.950Z,27.10
2019-02-27T11:17:42.754Z,27.80
2019-02-27T11:20:32.551Z,25.23
2019-02-27T11:23:22.395Z,23.90
2019-02-27T11:26:12.148Z,20.30
2019-02-27T11:29:01.951Z,25.27
2019-02-27T11:31:32.417Z,22.57
2019-02-27T11:34:22.224Z,22.57
2019-02-27T11:37:13.840Z,19.03
2019-02-27T11:39:54.859Z,27.33
2019-02-27T11:42:25.289Z,22.40
2019-02-27T11:45:15.215Z,22.50
2019-02-27T11:48:05.056Z,22.10
2019-02-27T11:50:35.460Z,20.13
2019-02-27T11:53:25.220Z,16.27
2019-02-27T11:56:15.035Z,22.60
2019-02-27T11:58:47.135Z,23.17
2019-02-27T12:01:36.970Z,16.20
2019-02-27T12:04:26.748Z,20.73
2019-02-27T12:07:17.484Z,23.50
2019-02-27T12:10:10.285Z,16.43
2019-02-27T12:13:01.323Z,17.60
2019-02-27T12:15:51.548Z,20.07
2019-02-27T12:18:41.398Z,15.20
2019-02-27T12:21:31.160Z,17.87
2019-02-27T12:24:20.987Z,18.87
2019-02-27T12:30:38.198Z,21.90
2019-02-27T12:33:29.390Z,13.80
2019-02-27T12:36:10.539Z,19.97
2019-02-27T12:39:15.121Z,19.80
2019-02-27T12:41:45.573Z,17.03
2019-02-27T12:44:16.069Z,33.33
2019-02-27T12:47:06.302Z,16.30
2019-02-27T12:49:48.919Z,15.43
2019-02-27T12:52:38.726Z,14.43
2019-02-27T12:55:28.710Z,17.07
2019-02-27T12:58:18.526Z,19.17
2019-02-27T13:01:08.343Z,13.77
2019-02-27T13:03:58.183Z,13.23
2019-02-27T13:06:47.967Z,14.30
2019-02-27T13:09:37.764Z,16.27
2019-02-27T13:12:27.586Z,13.70
2019-02-27T13:15:19.082Z,10.90
2019-02-27T13:18:08.855Z,16.10
2019-02-27T13:24:04.045Z,12.10
2019-02-27T13:26:53.885Z,10.57
2019-02-27T13:29:44.595Z,14.83
2019-02-27T13:32:27.560Z,10.10
2019-02-27T13:35:10.874Z,14.07
2019-02-27T13:38:01.127Z,13.40
2019-02-27T13:40:50.927Z,12.77
2019-02-27T13:43:40.766Z,12.20
2019-02-27T13:46:11.141Z,12.00
2019-02-27T13:49:00.929Z,13.60
2019-02-27T13:51:50.676Z,13.67
2019-02-27T13:54:40.480Z,10.47
2019-02-27T13:57:30.232Z,13.13
2019-02-27T14:00:39.122Z,10.53
2019-02-27T14:03:28.907Z,12.50
2019-02-27T14:06:18.738Z,17.67
2019-02-27T14:09:08.806Z,13.73
2019-02-27T14:11:59.369Z,13.23
2019-02-27T14:14:40.891Z,14.93
2019-02-27T14:17:30.683Z,13.60
2019-02-27T14:20:01.149Z,14.23
2019-02-27T14:22:50.957Z,11.90
2019-02-27T14:25:40.715Z,21.63
2019-02-27T14:31:15.260Z,12.70
2019-02-27T14:34:05.036Z,8.90
2019-02-27T14:36:54.858Z,10.97
2019-02-27T14:39:44.619Z,11.30
2019-02-27T14:42:34.457Z,11.53
2019-02-27T14:45:24.287Z,18.87
2019-02-27T14:48:14.148Z,11.47
2019-02-27T14:51:07.402Z,12.63
2019-02-27T14:53:46.998Z,13.17
2019-02-27T14:56:36.809Z,14.13
2019-02-27T14:59:07.227Z,11.47
2019-02-27T15:01:57.000Z,10.30
2019-02-27T15:04:46.842Z,18.37
2019-02-27T15:07:36.602Z,12.03
2019-02-27T15:13:32.088Z,10.20
2019-02-27T15:16:21.951Z,12.43
2019-02-27T15:18:55.059Z,15.63
2019-02-27T15:21:43.934Z,14.93
2019-02-27T15:24:27.427Z,12.30
2019-02-27T15:27:19.506Z,17.43
2019-02-27T15:30:00.403Z,12.20
2019-02-27T15:32:50.220Z,12.07
2019-02-27T15:35:40.042Z,11.63
2019-02-27T15:38:11.754Z,13.43
2019-02-27T15:40:48.116Z,11.47
2019-02-27T15:43:18.580Z,12.53
2019-02-27T15:46:08.395Z,12.20
2019-02-27T15:48:59.845Z,15.90
2019-02-27T15:51:41.223Z,10.73
2019-02-27T15:54:31.013Z,12.70
2019-02-27T15:57:01.489Z,13.20
2019-02-27T15:59:51.245Z,18.63
2019-02-27T16:02:41.273Z,15.73
2019-02-27T16:05:31.730Z,17.40
2019-02-27T16:08:15.299Z,17.50
2019-02-27T16:10:54.760Z,14.87
2019-02-27T16:13:34.763Z,16.30
2019-02-27T16:16:11.931Z,18.23
2019-02-27T16:19:01.718Z,18.67
2019-02-27T16:21:56.867Z,24.47
2019-02-27T16:24:53.372Z,18.87
2019-02-27T16:27:43.162Z,19.47
2019-02-27T16:30:33.144Z,18.73
2019-02-27T16:33:24.021Z,20.87
2019-02-27T16:36:06.328Z,24.10
2019-02-27T16:38:36.767Z,19.13
2019-02-27T16:41:28.978Z,19.57
2019-02-27T16:44:11.097Z,20.53
2019-02-27T16:46:53.050Z,19.43
2019-02-27T16:49:42.868Z,17.70
2019-02-27T16:52:32.681Z,16.50
2019-02-27T16:55:23.311Z,23.10
2019-02-27T16:57:57.498Z,16.80
2019-02-27T17:00:46.301Z,16.70
2019-02-27T17:03:16.725Z,18.83
2019-02-27T17:05:47.218Z,22.27
2019-02-27T17:08:37.040Z,18.93
2019-02-27T17:11:29.416Z,18.30
2019-02-27T17:14:09.841Z,25.77
2019-02-27T17:16:59.659Z,19.40
2019-02-27T17:19:30.197Z,20.57
2019-02-27T17:22:20.011Z,21.43
2019-02-27T17:25:10.670Z,24.07
2019-02-27T17:28:00.492Z,22.87
2019-02-27T17:30:50.311Z,27.30
2019-02-27T17:33:40.144Z,24.70
2019-02-27T17:36:16.313Z,25.47
2019-02-27T17:39:07.375Z,23.20
2019-02-27T17:41:57.259Z,22.50
2019-02-27T17:44:27.981Z,21.70
2019-02-27T17:47:17.831Z,26.10
2019-02-27T17:49:57.477Z,28.70
2019-02-27T17:52:37.662Z,18.77
2019-02-27T17:55:27.512Z,25.23
2019-02-27T17:58:17.323Z,20.30
2019-02-27T18:03:51.507Z,23.87
2019-02-27T18:06:41.426Z,31.07
2019-02-27T18:09:31.298Z,31.67
2019-02-27T18:12:21.652Z,28.70
2019-02-27T18:14:58.809Z,21.70
2019-02-27T18:17:48.774Z,27.07
2019-02-27T18:20:24.130Z,25.33
2019-02-27T18:23:10.784Z,24.80
2019-02-27T18:26:00.671Z,26.53
2019-02-27T18:28:50.505Z,27.83
2019-02-27T18:31:40.338Z,26.57
2019-02-27T18:34:30.117Z,26.13
2019-02-27T18:37:19.977Z,30.07
2019-02-27T18:40:11.195Z,24.83
2019-02-27T18:45:48.240Z,28.50
2019-02-27T18:48:29.008Z,25.70
2019-02-27T18:51:18.989Z,27.63
2019-02-27T18:53:49.446Z,29.23
2019-02-27T18:56:40.351Z,33.38
2019-02-27T18:59:22.198Z,26.97
2019-02-27T19:02:12.127Z,41.83
2019-02-27T19:05:01.962Z,24.27
2019-02-27T19:07:54.852Z,38.37
2019-02-27T19:10:29.485Z,27.30
2019-02-27T19:13:19.320Z,24.70
2019-02-27T19:16:09.113Z,20.20
2019-02-27T19:18:58.908Z,22.87
2019-02-27T19:22:11.069Z,24.03
2019-02-27T19:24:51.610Z,18.80
2019-02-27T19:30:46.614Z,20.13
2019-02-27T19:33:36.570Z,20.90
2019-02-27T19:36:30.494Z,16.67
2019-02-27T19:39:09.118Z,20.63
2019-02-27T19:41:58.938Z,23.00
2019-02-27T19:44:48.741Z,21.70
2019-02-27T19:47:57.604Z,18.40
2019-02-27T19:50:47.468Z,22.97
2019-02-27T19:53:39.589Z,18.97
2019-02-27T19:56:20.425Z,27.20
2019-02-27T19:59:10.405Z,17.70
2019-02-27T20:02:00.240Z,16.40
2019-02-27T20:04:50.131Z,15.37
2019-02-27T20:07:40.068Z,12.60
2019-02-27T20:10:32.990Z,30.70
2019-02-27T20:13:12.694Z,16.70
2019-02-27T20:19:07.886Z,14.07
2019-02-27T20:21:58.611Z,16.87
2019-02-27T20:24:42.997Z,19.43
2019-02-27T20:27:18.396Z,14.90
2019-02-27T20:29:48.799Z,20.03
2019-02-27T20:32:38.617Z,15.30
2019-02-27T20:35:28.673Z,20.10
2019-02-27T20:41:02.335Z,18.93
2019-02-27T20:43:34.349Z,17.63
2019-02-27T20:46:24.673Z,14.07
2019-02-27T20:49:10.377Z,16.00
2019-02-27T20:51:49.940Z,12.07
2019-02-27T20:54:39.696Z,14.03
2019-02-27T20:57:29.475Z,15.57
2019-02-27T21:03:02.815Z,14.63
2019-02-27T21:05:52.626Z,17.47
2019-02-27T21:08:42.464Z,21.67
2019-02-27T21:11:32.393Z,16.07
2019-02-27T21:14:23.610Z,18.53
2019-02-27T21:17:04.692Z,17.90
2019-02-27T21:19:54.523Z,15.90
2019-02-27T21:22:44.388Z,13.40
2019-02-27T21:25:34.243Z,15.93
2019-02-27T21:28:07.572Z,16.63
2019-02-27T21:30:52.032Z,15.47
2019-02-27T21:33:30.146Z,17.37
2019-02-27T21:36:19.896Z,15.23
2019-02-27T21:39:09.666Z,13.17
2019-02-27T21:41:42.320Z,16.87
2019-02-27T21:44:31.510Z,20.03
2019-02-27T21:47:01.964Z,19.23
2019-02-27T21:49:32.824Z,17.33
2019-02-27T21:52:15.939Z,18.37
2019-02-27T21:55:05.941Z,22.03
2019-02-27T21:57:58.039Z,17.10
2019-02-27T22:00:38.729Z,21.57
2019-02-27T22:03:09.195Z,26.40
2019-02-27T22:05:58.944Z,22.30
2019-02-27T22:08:48.788Z,28.70
2019-02-27T22:11:38.564Z,23.40
2019-02-27T22:14:28.337Z,29.00
2019-02-27T22:17:18.131Z,23.67
2019-02-27T22:20:08.099Z,20.80
2019-02-27T22:22:57.939Z,21.10
2019-02-27T22:25:47.736Z,29.20
2019-02-27T22:28:37.501Z,20.93
2019-02-27T22:31:27.291Z,24.30
2019-02-27T22:34:17.069Z,23.60
2019-02-27T22:37:06.182Z,26.63
2019-02-27T22:39:55.924Z,22.43
2019-02-27T22:42:48.423Z,27.10
2019-02-27T22:45:40.480Z,26.23
2019-02-27T22:48:19.993Z,22.90
2019-02-27T22:51:12.604Z,18.97
2019-02-27T22:53:52.995Z,21.67
2019-02-27T22:56:42.799Z,21.80
2019-02-27T22:59:34.082Z,23.40
2019-02-27T23:02:16.145Z,25.67
2019-02-27T23:08:08.324Z,22.50
2019-02-27T23:14:02.236Z,31.63
2019-02-27T23:16:32.594Z,29.03
2019-02-27T23:19:22.319Z,25.57
2019-02-27T23:22:12.100Z,25.97
2019-02-27T23:25:02.003Z,24.30
2019-02-27T23:27:32.369Z,25.10
2019-02-27T23:30:22.187Z,22.27
2019-02-27T23:33:11.960Z,28.80
2019-02-27T23:35:42.355Z,28.77
2019-02-27T23:38:34.665Z,25.07
2019-02-27T23:41:15.120Z,20.70
2019-02-27T23:44:05.469Z,21.13
2019-02-27T23:46:51.351Z,29.00
2019-02-27T23:49:31.292Z,23.77
2019-02-27T23:52:22.393Z,19.27
2019-02-27T23:55:12.527Z,22.30
2019-02-27T23:58:02.359Z,24.93
